sensor_id;sensor_type;location;lat;lon;timestamp;pressure;altitude;pressure_sealevel;temperature;humidity
11415;BME280;5763;42.714;23.244;2023-03-13T00:01:30;94793.50;;;4.70;44.24
11415;BME280;5763;42.714;23.244;2023-03-13T00:03:57;94794.28;;;4.70;44.62
11415;BME280;5763;42.714;23.244;2023-03-13T00:06:28;94799.72;;;4.70;44.55
11415;BME280;5763;42.714;23.244;2023-03-13T00:08:56;94804.69;;;4.75;44.50
11415;BME280;5763;42.714;23.244;2023-03-13T00:11:25;94818.94;;;4.79;44.20
11415;BME280;5763;42.714;23.244;2023-03-13T00:13:53;94815.13;;;4.77;43.82
11415;BME280;5763;42.714;23.244;2023-03-13T00:16:20;94820.22;;;4.71;43.99
11415;BME280;5763;42.714;23.244;2023-03-13T00:18:49;94809.84;;;4.66;44.28
11415;BME280;5763;42.714;23.244;2023-03-13T00:21:18;94813.06;;;4.58;44.50
11415;BME280;5763;42.714;23.244;2023-03-13T00:23:47;94808.41;;;4.58;44.25
11415;BME280;5763;42.714;23.244;2023-03-13T00:26:15;94821.53;;;4.60;44.09
11415;BME280;5763;42.714;23.244;2023-03-13T00:28:42;94818.53;;;4.54;44.24
11415;BME280;5763;42.714;23.244;2023-03-13T00:31:10;94806.25;;;4.46;44.14
11415;BME280;5763;42.714;23.244;2023-03-13T00:33:38;94818.19;;;4.49;44.42
11415;BME280;5763;42.714;23.244;2023-03-13T00:36:07;94828.69;;;4.47;44.48
11415;BME280;5763;42.714;23.244;2023-03-13T00:38:35;94816.66;;;4.48;44.11
11415;BME280;5763;42.714;23.244;2023-03-13T00:41:04;94819.44;;;4.44;43.98
11415;BME280;5763;42.714;23.244;2023-03-13T00:43:33;94816.28;;;4.49;44.47
11415;BME280;5763;42.714;23.244;2023-03-13T00:46:00;94822.75;;;4.55;44.15
11415;BME280;5763;42.714;23.244;2023-03-13T00:48:27;94824.41;;;4.49;44.29
11415;BME280;5763;42.714;23.244;2023-03-13T00:50:54;94812.50;;;4.43;44.42
11415;BME280;5763;42.714;23.244;2023-03-13T00:53:21;94822.94;;;4.41;44.46
11415;BME280;5763;42.714;23.244;2023-03-13T00:55:52;94819.06;;;4.42;44.69
11415;BME280;5763;42.714;23.244;2023-03-13T00:58:21;94818.25;;;4.45;44.14
11415;BME280;5763;42.714;23.244;2023-03-13T01:00:48;94815.28;;;4.36;44.33
11415;BME280;5763;42.714;23.244;2023-03-13T01:03:15;94806.47;;;4.29;44.61
11415;BME280;5763;42.714;23.244;2023-03-13T01:05:41;94795.59;;;4.32;44.39
11415;BME280;5763;42.714;23.244;2023-03-13T01:08:08;94802.47;;;4.40;44.54
11415;BME280;5763;42.714;23.244;2023-03-13T01:10:35;94794.31;;;4.40;44.98
11415;BME280;5763;42.714;23.244;2023-03-13T01:13:02;94796.84;;;4.54;44.43
11415;BME280;5763;42.714;23.244;2023-03-13T01:15:34;94806.38;;;4.66;44.11
11415;BME280;5763;42.714;23.244;2023-03-13T01:18:01;94810.22;;;4.68;44.00
11415;BME280;5763;42.714;23.244;2023-03-13T01:20:28;94809.38;;;4.71;44.18
11415;BME280;5763;42.714;23.244;2023-03-13T01:22:55;94795.47;;;4.69;44.25
11415;BME280;5763;42.714;23.244;2023-03-13T01:25:22;94810.56;;;4.70;44.23
11415;BME280;5763;42.714;23.244;2023-03-13T01:27:48;94815.53;;;4.75;43.75
11415;BME280;5763;42.714;23.244;2023-03-13T01:30:16;94824.44;;;4.72;43.52
11415;BME280;5763;42.714;23.244;2023-03-13T01:32:44;94827.69;;;4.64;43.46
11415;BME280;5763;42.714;23.244;2023-03-13T01:35:11;94816.84;;;4.64;43.34
11415;BME280;5763;42.714;23.244;2023-03-13T01:37:38;94824.63;;;4.62;43.30
11415;BME280;5763;42.714;23.244;2023-03-13T01:40:05;94830.03;;;4.62;43.63
11415;BME280;5763;42.714;23.244;2023-03-13T01:42:53;94782.03;;;4.32;43.91
11415;BME280;5763;42.714;23.244;2023-03-13T01:48:49;94821.69;;;4.49;43.62
11415;BME280;5763;42.714;23.244;2023-03-13T01:51:20;94834.56;;;4.42;44.06
11415;BME280;5763;42.714;23.244;2023-03-13T01:53:50;94836.03;;;4.46;44.07
11415;BME280;5763;42.714;23.244;2023-03-13T01:56:24;94827.97;;;4.43;44.10
11415;BME280;5763;42.714;23.244;2023-03-13T01:58:54;94825.31;;;4.39;44.46
11415;BME280;5763;42.714;23.244;2023-03-13T02:01:23;94825.59;;;4.45;44.33
11415;BME280;5763;42.714;23.244;2023-03-13T02:03:51;94820.50;;;4.50;44.83
11415;BME280;5763;42.714;23.244;2023-03-13T02:06:19;94815.59;;;4.42;44.73
11415;BME280;5763;42.714;23.244;2023-03-13T02:08:49;94833.44;;;4.39;44.71
11415;BME280;5763;42.714;23.244;2023-03-13T02:11:23;94830.00;;;4.35;44.29
11415;BME280;5763;42.714;23.244;2023-03-13T02:13:53;94835.81;;;4.34;44.03
11415;BME280;5763;42.714;23.244;2023-03-13T02:16:21;94837.13;;;4.22;44.50
11415;BME280;5763;42.714;23.244;2023-03-13T02:18:48;94829.91;;;4.09;44.71
11415;BME280;5763;42.714;23.244;2023-03-13T02:21:22;94846.16;;;4.09;44.59
11415;BME280;5763;42.714;23.244;2023-03-13T02:23:59;94845.78;;;4.10;45.29
11415;BME280;5763;42.714;23.244;2023-03-13T02:26:30;94847.72;;;4.10;46.01
11415;BME280;5763;42.714;23.244;2023-03-13T02:28:56;94847.63;;;4.17;46.16
11415;BME280;5763;42.714;23.244;2023-03-13T02:31:23;94853.81;;;4.17;46.22
11415;BME280;5763;42.714;23.244;2023-03-13T02:33:52;94861.50;;;4.22;46.59
11415;BME280;5763;42.714;23.244;2023-03-13T02:36:20;94864.28;;;4.15;46.93
11415;BME280;5763;42.714;23.244;2023-03-13T02:38:52;94870.53;;;4.09;47.11
11415;BME280;5763;42.714;23.244;2023-03-13T02:41:22;94873.13;;;4.19;46.81
11415;BME280;5763;42.714;23.244;2023-03-13T02:43:51;94885.50;;;4.20;46.94
11415;BME280;5763;42.714;23.244;2023-03-13T02:46:19;94871.88;;;4.27;46.96
11415;BME280;5763;42.714;23.244;2023-03-13T02:48:47;94886.88;;;4.35;46.45
11415;BME280;5763;42.714;23.244;2023-03-13T02:51:19;94889.75;;;4.21;46.48
11415;BME280;5763;42.714;23.244;2023-03-13T02:53:49;94885.59;;;4.13;46.62
11415;BME280;5763;42.714;23.244;2023-03-13T02:56:19;94901.44;;;4.15;47.20
11415;BME280;5763;42.714;23.244;2023-03-13T02:58:47;94892.19;;;4.09;47.42
11415;BME280;5763;42.714;23.244;2023-03-13T03:01:15;94888.78;;;4.01;47.49
11415;BME280;5763;42.714;23.244;2023-03-13T03:03:43;94893.44;;;4.01;47.57
11415;BME280;5763;42.714;23.244;2023-03-13T03:06:10;94887.25;;;4.00;47.45
11415;BME280;5763;42.714;23.244;2023-03-13T03:08:36;94898.59;;;3.88;47.66
11415;BME280;5763;42.714;23.244;2023-03-13T03:11:06;94906.47;;;3.76;47.88
11415;BME280;5763;42.714;23.244;2023-03-13T03:13:33;94903.78;;;3.72;47.28
11415;BME280;5763;42.714;23.244;2023-03-13T03:16:05;94911.47;;;3.77;47.19
11415;BME280;5763;42.714;23.244;2023-03-13T03:18:33;94916.94;;;3.74;47.18
11415;BME280;5763;42.714;23.244;2023-03-13T03:21:00;94920.72;;;3.80;47.84
11415;BME280;5763;42.714;23.244;2023-03-13T03:23:26;94929.13;;;3.89;47.32
11415;BME280;5763;42.714;23.244;2023-03-13T03:25:53;94929.16;;;3.85;47.81
11415;BME280;5763;42.714;23.244;2023-03-13T03:28:20;94925.75;;;3.81;48.03
11415;BME280;5763;42.714;23.244;2023-03-13T03:30:47;94923.75;;;3.85;47.87
11415;BME280;5763;42.714;23.244;2023-03-13T03:33:13;94928.47;;;3.78;48.49
11415;BME280;5763;42.714;23.244;2023-03-13T03:35:41;94920.72;;;3.80;47.92
11415;BME280;5763;42.714;23.244;2023-03-13T03:38:08;94929.13;;;3.89;47.78
11415;BME280;5763;42.714;23.244;2023-03-13T03:40:35;94923.59;;;3.62;48.34
11415;BME280;5763;42.714;23.244;2023-03-13T03:43:02;94953.16;;;3.83;48.10
11415;BME280;5763;42.714;23.244;2023-03-13T03:45:28;94960.19;;;3.77;48.77
11415;BME280;5763;42.714;23.244;2023-03-13T03:47:55;94960.25;;;3.67;48.87
11415;BME280;5763;42.714;23.244;2023-03-13T03:50:24;94960.22;;;3.74;48.45
11415;BME280;5763;42.714;23.244;2023-03-13T03:52:52;94951.34;;;3.70;48.68
11415;BME280;5763;42.714;23.244;2023-03-13T03:55:19;94957.59;;;3.63;48.73
11415;BME280;5763;42.714;23.244;2023-03-13T03:57:46;94963.41;;;3.58;49.31
11415;BME280;5763;42.714;23.244;2023-03-13T04:00:13;94963.38;;;3.62;49.19
11415;BME280;5763;42.714;23.244;2023-03-13T04:02:41;94965.78;;;3.53;49.36
11415;BME280;5763;42.714;23.244;2023-03-13T04:05:07;94975.84;;;3.52;48.92
11415;BME280;5763;42.714;23.244;2023-03-13T04:07:34;94984.38;;;3.47;49.28
11415;BME280;5763;42.714;23.244;2023-03-13T04:10:03;94980.88;;;3.47;49.58
11415;BME280;5763;42.714;23.244;2023-03-13T04:12:30;94990.50;;;3.55;49.74
11415;BME280;5763;42.714;23.244;2023-03-13T04:14:57;94993.59;;;3.53;49.49
11415;BME280;5763;42.714;23.244;2023-03-13T04:17:24;94999.84;;;3.43;49.79
11415;BME280;5763;42.714;23.244;2023-03-13T04:19:51;94983.28;;;3.34;50.18
11415;BME280;5763;42.714;23.244;2023-03-13T04:22:18;94986.00;;;3.38;50.64
11415;BME280;5763;42.714;23.244;2023-03-13T04:24:44;95000.66;;;3.40;50.74
11415;BME280;5763;42.714;23.244;2023-03-13T04:27:13;95000.66;;;3.40;50.52
11415;BME280;5763;42.714;23.244;2023-03-13T04:29:40;95002.19;;;3.41;50.33
11415;BME280;5763;42.714;23.244;2023-03-13T04:32:06;95006.47;;;3.39;51.10
11415;BME280;5763;42.714;23.244;2023-03-13T04:34:33;95018.78;;;3.43;50.49
11415;BME280;5763;42.714;23.244;2023-03-13T04:37:00;95032.31;;;3.43;50.46
11415;BME280;5763;42.714;23.244;2023-03-13T04:39:27;95028.47;;;3.37;50.69
11415;BME280;5763;42.714;23.244;2023-03-13T04:41:54;95039.25;;;3.44;50.96
11415;BME280;5763;42.714;23.244;2023-03-13T04:44:22;95040.84;;;3.38;50.54
11415;BME280;5763;42.714;23.244;2023-03-13T04:46:49;95042.44;;;3.29;51.25
11415;BME280;5763;42.714;23.244;2023-03-13T04:49:16;95044.38;;;3.28;51.31
11415;BME280;5763;42.714;23.244;2023-03-13T04:51:44;95046.25;;;3.38;51.63
11415;BME280;5763;42.714;23.244;2023-03-13T04:54:12;95053.63;;;3.31;51.50
11415;BME280;5763;42.714;23.244;2023-03-13T04:56:39;95051.34;;;3.22;51.82
11415;BME280;5763;42.714;23.244;2023-03-13T04:59:05;95050.22;;;3.16;51.71
11415;BME280;5763;42.714;23.244;2023-03-13T05:01:33;95054.84;;;3.19;51.85
11415;BME280;5763;42.714;23.244;2023-03-13T05:04:00;95042.50;;;3.15;51.91
11415;BME280;5763;42.714;23.244;2023-03-13T05:06:27;95037.56;;;3.03;52.41
11415;BME280;5763;42.714;23.244;2023-03-13T05:08:54;95046.50;;;2.89;52.67
11415;BME280;5763;42.714;23.244;2023-03-13T05:11:21;95058.78;;;2.97;51.97
11415;BME280;5763;42.714;23.244;2023-03-13T05:13:48;95056.06;;;3.01;52.29
11415;BME280;5763;42.714;23.244;2023-03-13T05:16:14;95059.13;;;3.10;51.95
11415;BME280;5763;42.714;23.244;2023-03-13T05:18:43;95062.63;;;3.10;52.34
11415;BME280;5763;42.714;23.244;2023-03-13T05:21:10;95062.53;;;3.24;52.02
11415;BME280;5763;42.714;23.244;2023-03-13T05:23:37;95069.50;;;3.18;52.31
11415;BME280;5763;42.714;23.244;2023-03-13T05:26:04;95079.44;;;3.42;53.45
11415;BME280;5763;42.714;23.244;2023-03-13T05:28:31;95078.22;;;3.57;53.74
11415;BME280;5763;42.714;23.244;2023-03-13T05:30:58;95066.63;;;3.57;53.43
11415;BME280;5763;42.714;23.244;2023-03-13T05:33:25;95076.28;;;3.54;52.72
11415;BME280;5763;42.714;23.244;2023-03-13T05:35:53;95102.19;;;3.52;52.08
11415;BME280;5763;42.714;23.244;2023-03-13T05:38:20;95086.69;;;3.66;51.64
11415;BME280;5763;42.714;23.244;2023-03-13T05:40:46;95088.56;;;3.69;51.18
11415;BME280;5763;42.714;23.244;2023-03-13T05:43:13;95083.56;;;3.71;51.50
11415;BME280;5763;42.714;23.244;2023-03-13T05:45:40;95093.63;;;3.67;51.54
11415;BME280;5763;42.714;23.244;2023-03-13T05:48:06;95091.66;;;3.71;51.79
11415;BME280;5763;42.714;23.244;2023-03-13T05:50:33;95085.84;;;3.76;51.54
11415;BME280;5763;42.714;23.244;2023-03-13T05:53:01;95090.84;;;3.81;51.30
11415;BME280;5763;42.714;23.244;2023-03-13T05:55:28;95098.94;;;3.85;51.18
11415;BME280;5763;42.714;23.244;2023-03-13T05:57:55;95101.63;;;3.85;50.99
11415;BME280;5763;42.714;23.244;2023-03-13T06:00:23;95095.84;;;3.79;51.19
11415;BME280;5763;42.714;23.244;2023-03-13T06:02:49;95107.69;;;4.03;51.56
11415;BME280;5763;42.714;23.244;2023-03-13T06:05:16;95101.44;;;4.09;51.66
11415;BME280;5763;42.714;23.244;2023-03-13T06:07:43;95101.34;;;4.23;51.48
11415;BME280;5763;42.714;23.244;2023-03-13T06:10:11;95106.25;;;4.39;50.92
11415;BME280;5763;42.714;23.244;2023-03-13T06:12:38;95103.94;;;4.37;50.07
11415;BME280;5763;42.714;23.244;2023-03-13T06:15:06;95107.38;;;4.41;50.61
11415;BME280;5763;42.714;23.244;2023-03-13T06:17:34;95103.94;;;4.37;50.03
11415;BME280;5763;42.714;23.244;2023-03-13T06:20:02;95094.22;;;4.40;50.59
11415;BME280;5763;42.714;23.244;2023-03-13T06:22:30;95102.63;;;4.52;50.18
11415;BME280;5763;42.714;23.244;2023-03-13T06:24:57;95096.44;;;4.55;49.87
11415;BME280;5763;42.714;23.244;2023-03-13T06:27:25;95092.63;;;4.49;49.80
11415;BME280;5763;42.714;23.244;2023-03-13T06:29:51;95102.78;;;4.35;50.22
11415;BME280;5763;42.714;23.244;2023-03-13T06:32:18;95081.94;;;4.32;49.95
11415;BME280;5763;42.714;23.244;2023-03-13T06:34:45;95084.81;;;4.55;49.21
11415;BME280;5763;42.714;23.244;2023-03-13T06:37:11;95086.19;;;4.73;49.06
11415;BME280;5763;42.714;23.244;2023-03-13T06:39:38;95091.97;;;4.75;48.89
11415;BME280;5763;42.714;23.244;2023-03-13T06:42:05;95104.53;;;4.96;47.89
11415;BME280;5763;42.714;23.244;2023-03-13T06:44:33;95094.44;;;5.00;47.89
11415;BME280;5763;42.714;23.244;2023-03-13T06:47:00;95109.06;;;5.06;47.84
11415;BME280;5763;42.714;23.244;2023-03-13T06:49:27;95097.84;;;5.07;47.39
11415;BME280;5763;42.714;23.244;2023-03-13T06:51:56;95108.56;;;5.18;47.75
11415;BME280;5763;42.714;23.244;2023-03-13T06:54:23;95094.38;;;5.07;48.09
11415;BME280;5763;42.714;23.244;2023-03-13T06:56:50;95096.66;;;5.08;47.34
11415;BME280;5763;42.714;23.244;2023-03-13T06:59:16;95094.81;;;5.02;47.34
11415;BME280;5763;42.714;23.244;2023-03-13T07:01:44;95087.81;;;5.01;46.35
11415;BME280;5763;42.714;23.244;2023-03-13T07:04:12;95106.31;;;5.13;45.80
11415;BME280;5763;42.714;23.244;2023-03-13T07:06:39;95090.44;;;5.11;45.95
11415;BME280;5763;42.714;23.244;2023-03-13T07:09:06;95101.88;;;5.26;46.33
11415;BME280;5763;42.714;23.244;2023-03-13T07:11:34;95100.69;;;5.30;46.06
11415;BME280;5763;42.714;23.244;2023-03-13T07:14:01;95097.22;;;5.26;46.89
11415;BME280;5763;42.714;23.244;2023-03-13T07:16:28;95098.91;;;5.47;46.60
11415;BME280;5763;42.714;23.244;2023-03-13T07:18:56;95087.69;;;5.45;45.89
11415;BME280;5763;42.714;23.244;2023-03-13T07:21:23;95085.09;;;5.64;46.42
11415;BME280;5763;42.714;23.244;2023-03-13T07:23:49;95097.38;;;5.76;44.92
11415;BME280;5763;42.714;23.244;2023-03-13T07:26:17;95088.19;;;5.66;46.11
11415;BME280;5763;42.714;23.244;2023-03-13T07:28:44;95058.81;;;5.58;45.28
11415;BME280;5763;42.714;23.244;2023-03-13T07:31:12;95097.16;;;5.93;45.41
11415;BME280;5763;42.714;23.244;2023-03-13T07:33:40;95093.56;;;6.00;45.92
11415;BME280;5763;42.714;23.244;2023-03-13T07:36:08;95093.63;;;5.96;46.13
11415;BME280;5763;42.714;23.244;2023-03-13T07:38:36;95088.19;;;5.96;45.51
11415;BME280;5763;42.714;23.244;2023-03-13T07:41:03;95098.56;;;6.01;45.72
11415;BME280;5763;42.714;23.244;2023-03-13T07:43:30;95103.66;;;5.99;45.83
11415;BME280;5763;42.714;23.244;2023-03-13T07:45:59;95089.78;;;5.94;46.27
11415;BME280;5763;42.714;23.244;2023-03-13T07:48:29;95089.34;;;5.95;47.08
11415;BME280;5763;42.714;23.244;2023-03-13T07:50:56;95078.88;;;6.20;46.33
11415;BME280;5763;42.714;23.244;2023-03-13T07:53:25;94945.00;;;5.47;46.56
11415;BME280;5763;42.714;23.244;2023-03-13T07:55:54;95084.00;;;6.64;46.63
11415;BME280;5763;42.714;23.244;2023-03-13T07:58:21;95073.69;;;6.52;45.41
11415;BME280;5763;42.714;23.244;2023-03-13T08:00:48;95090.97;;;6.65;43.59
11415;BME280;5763;42.714;23.244;2023-03-13T08:03:15;95075.38;;;6.89;43.07
11415;BME280;5763;42.714;23.244;2023-03-13T08:05:42;95075.78;;;7.10;42.59
11415;BME280;5763;42.714;23.244;2023-03-13T08:08:09;95070.47;;;7.42;42.39
11415;BME280;5763;42.714;23.244;2023-03-13T08:10:37;95073.53;;;7.64;42.60
11415;BME280;5763;42.714;23.244;2023-03-13T08:13:04;95069.13;;;7.86;42.19
11415;BME280;5763;42.714;23.244;2023-03-13T08:15:30;95072.16;;;8.07;41.95
11415;BME280;5763;42.714;23.244;2023-03-13T08:17:57;95075.78;;;8.20;41.92
11415;BME280;5763;42.714;23.244;2023-03-13T08:20:24;95089.03;;;8.18;41.17
11415;BME280;5763;42.714;23.244;2023-03-13T08:22:51;95076.03;;;8.26;41.65
11415;BME280;5763;42.714;23.244;2023-03-13T08:25:17;95086.78;;;8.49;40.32
11415;BME280;5763;42.714;23.244;2023-03-13T08:27:46;95086.44;;;8.63;39.85
11415;BME280;5763;42.714;23.244;2023-03-13T08:30:13;95084.88;;;8.78;39.95
11415;BME280;5763;42.714;23.244;2023-03-13T08:32:40;95085.22;;;8.96;38.65
11415;BME280;5763;42.714;23.244;2023-03-13T08:35:07;95083.56;;;9.14;38.00
11415;BME280;5763;42.714;23.244;2023-03-13T08:37:34;95066.97;;;9.21;38.24
11415;BME280;5763;42.714;23.244;2023-03-13T08:40:01;95081.03;;;9.48;39.14
11415;BME280;5763;42.714;23.244;2023-03-13T08:42:34;95076.72;;;9.76;38.53
11415;BME280;5763;42.714;23.244;2023-03-13T08:45:03;95084.91;;;9.63;38.06
11415;BME280;5763;42.714;23.244;2023-03-13T08:47:30;95075.75;;;9.82;38.60
11415;BME280;5763;42.714;23.244;2023-03-13T08:49:57;95073.47;;;9.93;38.70
11415;BME280;5763;42.714;23.244;2023-03-13T08:52:24;95064.63;;;10.02;38.22
11415;BME280;5763;42.714;23.244;2023-03-13T08:54:50;95082.16;;;10.17;37.62
11415;BME280;5763;42.714;23.244;2023-03-13T08:57:17;95068.16;;;10.15;38.27
11415;BME280;5763;42.714;23.244;2023-03-13T08:59:45;95073.75;;;10.11;37.18
11415;BME280;5763;42.714;23.244;2023-03-13T09:02:13;95069.25;;;10.55;36.40
11415;BME280;5763;42.714;23.244;2023-03-13T09:04:45;95070.34;;;10.91;36.39
11415;BME280;5763;42.714;23.244;2023-03-13T09:07:14;95069.66;;;11.00;36.00
11415;BME280;5763;42.714;23.244;2023-03-13T09:09:41;95074.63;;;11.26;35.00
11415;BME280;5763;42.714;23.244;2023-03-13T09:12:09;95074.88;;;11.41;34.68
11415;BME280;5763;42.714;23.244;2023-03-13T09:14:35;95072.47;;;11.43;35.56
11415;BME280;5763;42.714;23.244;2023-03-13T09:17:02;95061.72;;;11.70;34.10
11415;BME280;5763;42.714;23.244;2023-03-13T09:19:31;95063.94;;;11.84;33.02
11415;BME280;5763;42.714;23.244;2023-03-13T09:21:59;95069.03;;;11.94;33.19
11415;BME280;5763;42.714;23.244;2023-03-13T09:24:25;95066.44;;;12.30;32.70
11415;BME280;5763;42.714;23.244;2023-03-13T09:26:52;95065.94;;;12.53;32.84
11415;BME280;5763;42.714;23.244;2023-03-13T09:29:19;95046.16;;;12.67;33.08
11415;BME280;5763;42.714;23.244;2023-03-13T09:31:46;95059.38;;;13.08;32.75
11415;BME280;5763;42.714;23.244;2023-03-13T09:34:13;95065.00;;;13.41;32.69
11415;BME280;5763;42.714;23.244;2023-03-13T09:36:41;95061.53;;;13.49;31.71
11415;BME280;5763;42.714;23.244;2023-03-13T09:39:08;95060.59;;;13.61;31.91
11415;BME280;5763;42.714;23.244;2023-03-13T09:41:38;95053.13;;;13.62;31.35
11415;BME280;5763;42.714;23.244;2023-03-13T09:44:10;95041.00;;;13.68;31.58
11415;BME280;5763;42.714;23.244;2023-03-13T09:46:46;95044.88;;;13.62;31.45
11415;BME280;5763;42.714;23.244;2023-03-13T09:49:28;95036.03;;;13.99;31.41
11415;BME280;5763;42.714;23.244;2023-03-13T09:52:06;95043.34;;;14.20;31.42
11415;BME280;5763;42.714;23.244;2023-03-13T09:54:40;95060.44;;;14.33;31.17
11415;BME280;5763;42.714;23.244;2023-03-13T09:57:15;95052.47;;;14.68;31.34
11415;BME280;5763;42.714;23.244;2023-03-13T09:59:48;95040.06;;;14.96;30.15
11415;BME280;5763;42.714;23.244;2023-03-13T10:02:24;95040.34;;;15.21;29.26
11415;BME280;5763;42.714;23.244;2023-03-13T10:04:59;95034.41;;;15.37;28.43
11415;BME280;5763;42.714;23.244;2023-03-13T10:07:29;95025.81;;;15.59;29.65
11415;BME280;5763;42.714;23.244;2023-03-13T10:09:57;95027.16;;;16.07;29.14
11415;BME280;5763;42.714;23.244;2023-03-13T10:12:27;95018.78;;;16.01;28.40
11415;BME280;5763;42.714;23.244;2023-03-13T10:15:06;95012.97;;;16.14;27.84
11415;BME280;5763;42.714;23.244;2023-03-13T10:17:43;95024.09;;;16.19;28.78
11415;BME280;5763;42.714;23.244;2023-03-13T10:20:17;95003.47;;;16.00;28.66
11415;BME280;5763;42.714;23.244;2023-03-13T10:22:50;95005.25;;;16.32;28.58
11415;BME280;5763;42.714;23.244;2023-03-13T10:25:27;94991.22;;;16.50;27.41
11415;BME280;5763;42.714;23.244;2023-03-13T10:27:56;94994.16;;;16.62;26.95
11415;BME280;5763;42.714;23.244;2023-03-13T10:30:25;94986.13;;;16.29;27.41
11415;BME280;5763;42.714;23.244;2023-03-13T10:32:59;94989.50;;;16.38;27.80
11415;BME280;5763;42.714;23.244;2023-03-13T10:35:32;94971.38;;;16.17;28.26
11415;BME280;5763;42.714;23.244;2023-03-13T10:38:08;94977.03;;;16.43;27.54
11415;BME280;5763;42.714;23.244;2023-03-13T10:40:36;94976.59;;;16.64;27.90
11415;BME280;5763;42.714;23.244;2023-03-13T10:43:04;94965.28;;;16.63;27.27
11415;BME280;5763;42.714;23.244;2023-03-13T10:45:36;94962.25;;;17.00;26.49
11415;BME280;5763;42.714;23.244;2023-03-13T10:48:11;94969.56;;;17.44;25.95
11415;BME280;5763;42.714;23.244;2023-03-13T10:50:41;94966.72;;;17.63;25.96
11415;BME280;5763;42.714;23.244;2023-03-13T10:53:31;94962.50;;;17.68;25.41
11415;BME280;5763;42.714;23.244;2023-03-13T10:56:08;94959.53;;;17.72;24.57
11415;BME280;5763;42.714;23.244;2023-03-13T10:58:40;94949.72;;;17.71;25.16
11415;BME280;5763;42.714;23.244;2023-03-13T11:01:16;94933.94;;;17.31;25.77
11415;BME280;5763;42.714;23.244;2023-03-13T11:03:44;94947.47;;;17.49;26.29
11415;BME280;5763;42.714;23.244;2023-03-13T11:06:25;94909.63;;;17.66;26.25
11415;BME280;5763;42.714;23.244;2023-03-13T11:09:10;94938.28;;;17.88;24.97
11415;BME280;5763;42.714;23.244;2023-03-13T11:11:46;94934.16;;;17.78;24.70
11415;BME280;5763;42.714;23.244;2023-03-13T11:14:20;94934.13;;;17.73;24.26
11415;BME280;5763;42.714;23.244;2023-03-13T11:16:51;94939.97;;;18.12;24.90
11415;BME280;5763;42.714;23.244;2023-03-13T11:19:36;94934.75;;;18.19;25.12
11415;BME280;5763;42.714;23.244;2023-03-13T11:22:23;94926.78;;;18.69;24.23
11415;BME280;5763;42.714;23.244;2023-03-13T11:27:54;94921.56;;;18.40;23.73
11415;BME280;5763;42.714;23.244;2023-03-13T11:30:38;94910.38;;;18.28;24.50
11415;BME280;5763;42.714;23.244;2023-03-13T11:33:13;94902.50;;;18.53;24.24
11415;BME280;5763;42.714;23.244;2023-03-13T11:35:46;94903.13;;;18.84;24.64
11415;BME280;5763;42.714;23.244;2023-03-13T11:38:18;94887.50;;;18.81;24.44
11415;BME280;5763;42.714;23.244;2023-03-13T11:40:56;94903.47;;;19.03;23.52
11415;BME280;5763;42.714;23.244;2023-03-13T11:43:35;94890.81;;;18.91;24.34
11415;BME280;5763;42.714;23.244;2023-03-13T11:46:18;94878.88;;;19.32;23.22
11415;BME280;5763;42.714;23.244;2023-03-13T11:49:31;94882.91;;;19.48;22.71
11415;BME280;5763;42.714;23.244;2023-03-13T11:52:12;94869.53;;;19.52;22.78
11415;BME280;5763;42.714;23.244;2023-03-13T11:57:50;94861.47;;;19.48;22.35
11415;BME280;5763;42.714;23.244;2023-03-13T12:00:23;94841.78;;;19.52;21.96
11415;BME280;5763;42.714;23.244;2023-03-13T12:02:56;94854.41;;;19.47;21.72
11415;BME280;5763;42.714;23.244;2023-03-13T12:05:36;94851.13;;;19.87;21.42
11415;BME280;5763;42.714;23.244;2023-03-13T12:08:06;94838.50;;;20.19;21.38
11415;BME280;5763;42.714;23.244;2023-03-13T12:10:40;94836.44;;;20.31;21.97
11415;BME280;5763;42.714;23.244;2023-03-13T12:13:15;94832.63;;;20.34;20.98
11415;BME280;5763;42.714;23.244;2023-03-13T12:15:48;94825.22;;;20.64;21.33
11415;BME280;5763;42.714;23.244;2023-03-13T12:18:19;94831.59;;;20.42;21.66
11415;BME280;5763;42.714;23.244;2023-03-13T12:20:52;94816.53;;;20.16;22.82
11415;BME280;5763;42.714;23.244;2023-03-13T12:23:27;94830.41;;;20.05;21.84
11415;BME280;5763;42.714;23.244;2023-03-13T12:25:59;94829.66;;;19.88;21.85
11415;BME280;5763;42.714;23.244;2023-03-13T12:28:34;94830.19;;;19.59;22.22
11415;BME280;5763;42.714;23.244;2023-03-13T12:31:16;94829.94;;;19.51;21.59
11415;BME280;5763;42.714;23.244;2023-03-13T12:33:49;94819.59;;;19.68;21.92
11415;BME280;5763;42.714;23.244;2023-03-13T12:36:19;94829.41;;;19.69;22.84
11415;BME280;5763;42.714;23.244;2023-03-13T12:38:54;94820.06;;;19.78;22.68
11415;BME280;5763;42.714;23.244;2023-03-13T12:41:24;94805.94;;;19.87;23.12
11415;BME280;5763;42.714;23.244;2023-03-13T12:43:54;94818.53;;;20.10;22.45
11415;BME280;5763;42.714;23.244;2023-03-13T12:46:41;94816.72;;;20.29;22.34
11415;BME280;5763;42.714;23.244;2023-03-13T12:52:31;94824.84;;;19.99;23.05
11415;BME280;5763;42.714;23.244;2023-03-13T12:58:38;94819.06;;;19.53;23.37
11415;BME280;5763;42.714;23.244;2023-03-13T13:01:13;94817.28;;;19.39;22.94
11415;BME280;5763;42.714;23.244;2023-03-13T13:03:50;94818.53;;;19.33;22.99
11415;BME280;5763;42.714;23.244;2023-03-13T13:06:18;94815.25;;;19.18;24.30
11415;BME280;5763;42.714;23.244;2023-03-13T13:08:47;94815.78;;;19.27;23.83
11415;BME280;5763;42.714;23.244;2023-03-13T13:14:54;94822.84;;;19.39;23.72
11415;BME280;5763;42.714;23.244;2023-03-13T13:17:40;94818.56;;;19.44;23.46
11415;BME280;5763;42.714;23.244;2023-03-13T13:20:38;94814.78;;;19.25;22.80
11415;BME280;5763;42.714;23.244;2023-03-13T13:23:27;94804.16;;;19.34;23.06
11415;BME280;5763;42.714;23.244;2023-03-13T13:32:06;94798.88;;;19.75;22.39
11415;BME280;5763;42.714;23.244;2023-03-13T13:34:54;94792.28;;;19.78;22.74
11415;BME280;5763;42.714;23.244;2023-03-13T13:37:25;94797.84;;;20.00;22.83
11415;BME280;5763;42.714;23.244;2023-03-13T13:40:15;94799.09;;;19.99;22.88
11415;BME280;5763;42.714;23.244;2023-03-13T13:42:47;94788.03;;;19.44;22.52
11415;BME280;5763;42.714;23.244;2023-03-13T13:45:21;94800.75;;;18.70;23.81
11415;BME280;5763;42.714;23.244;2023-03-13T13:47:51;94788.97;;;18.91;23.97